Time;durP1;ratioP1;P1;durP2;ratioP2;P2;SDS_P1;SDS_P2;PMS_P1;PMS_P2;Temp;Humidity;BMP_temperature;BMP_pressure;BME280_temperature;BME280_humidity;BME280_pressure;Samples;Min_cycle;Max_cycle;Signal;HPM_P1;HPM_P2
2021/10/27 00:00:43;;;;;;;17.88;10.85;;;10.00;65.90;;;;;;6275999;22;20335;-67
2021/10/27 00:03:10;;;;;;;15.68;9.10;;;10.00;66.00;;;;;;6275299;22;20485;-67
2021/10/27 00:05:36;;;;;;;19.20;11.02;;;9.90;65.90;;;;;;6277603;22;20386;-67
2021/10/27 00:08:02;;;;;;;17.13;10.77;;;9.90;66.00;;;;;;6277598;22;20113;-67
2021/10/27 00:10:28;;;;;;;18.60;10.90;;;9.90;66.10;;;;;;6277464;22;20035;-67
2021/10/27 00:12:54;;;;;;;19.80;10.77;;;9.80;66.20;;;;;;6277018;22;20007;-67
2021/10/27 00:15:20;;;;;;;15.63;10.27;;;9.80;66.20;;;;;;6277438;22;20313;-67
2021/10/27 00:17:47;;;;;;;16.23;9.85;;;9.80;66.20;;;;;;6277416;22;19995;-67
2021/10/27 00:20:13;;;;;;;17.75;9.05;;;9.80;66.10;;;;;;6275798;22;20003;-67
2021/10/27 00:22:39;;;;;;;18.40;10.20;;;9.80;66.10;;;;;;6275792;22;20007;-67
2021/10/27 00:25:06;;;;;;;29.50;11.95;;;9.70;66.10;;;;;;6277427;22;20305;-68
2021/10/27 00:27:33;;;;;;;22.42;10.80;;;9.70;66.20;;;;;;6277316;22;20004;-66
2021/10/27 00:29:59;;;;;;;15.55;9.57;;;9.70;66.20;;;;;;6277427;22;20067;-67
2021/10/27 00:32:25;;;;;;;12.65;8.57;;;9.70;66.20;;;;;;6277320;22;19996;-67
2021/10/27 00:34:50;;;;;;;14.05;9.10;;;9.70;66.10;;;;;;6275518;22;20014;-67
2021/10/27 00:37:16;;;;;;;17.30;9.98;;;9.70;66.10;;;;;;6277249;22;20049;-67
2021/10/27 00:39:44;;;;;;;21.17;10.32;;;9.60;66.20;;;;;;6277237;22;20002;-67
2021/10/27 00:42:11;;;;;;;17.13;10.02;;;9.60;66.30;;;;;;6277160;22;20075;-67
2021/10/27 00:44:37;;;;;;;16.42;9.63;;;9.60;66.30;;;;;;6277123;22;19999;-67
2021/10/27 00:47:08;;;;;;;13.75;8.93;;;9.60;66.20;;;;;;6275536;22;20015;-67
2021/10/27 00:49:37;;;;;;;12.25;8.60;;;9.60;66.30;;;;;;6277180;22;20030;-68
2021/10/27 00:52:05;;;;;;;19.60;11.23;;;9.60;66.20;;;;;;6277151;22;20382;-67
2021/10/27 00:54:33;;;;;;;18.00;10.88;;;9.60;66.30;;;;;;6277044;22;19999;-67
2021/10/27 00:56:59;;;;;;;16.23;11.05;;;9.60;66.40;;;;;;6277021;22;20075;-67
2021/10/27 00:59:25;;;;;;;17.15;10.85;;;9.50;66.30;;;;;;6277459;22;20059;-67
2021/10/27 01:01:52;;;;;;;23.10;9.68;;;9.50;66.30;;;;;;6277582;22;20492;-67
2021/10/27 01:04:18;;;;;;;19.30;10.13;;;9.50;66.30;;;;;;6277633;22;19999;-66
2021/10/27 01:06:46;;;;;;;12.57;8.63;;;9.50;66.30;;;;;;6277222;22;20060;-67
2021/10/27 01:09:12;;;;;;;13.60;9.25;;;9.40;66.20;;;;;;6276954;22;20000;-67
2021/10/27 01:11:38;;;;;;;23.38;10.00;;;9.40;66.20;;;;;;6276876;22;20073;-66
2021/10/27 01:14:05;;;;;;;15.93;8.27;;;9.40;66.30;;;;;;6276466;22;20405;-67
2021/10/27 01:16:31;;;;;;;18.92;8.68;;;9.40;66.30;;;;;;6276844;22;19996;-67
2021/10/27 01:18:57;;;;;;;13.95;8.40;;;9.40;66.30;;;;;;6276791;22;20007;-67
2021/10/27 01:21:24;;;;;;;16.80;8.15;;;9.40;66.40;;;;;;6276847;22;20003;-67
2021/10/27 01:23:52;;;;;;;16.10;8.88;;;9.40;66.40;;;;;;6277118;22;20004;-67
2021/10/27 01:26:18;;;;;;;17.33;8.80;;;9.30;66.40;;;;;;6276797;22;20411;-67
2021/10/27 01:28:45;;;;;;;17.33;9.70;;;9.30;66.40;;;;;;6276733;22;20049;-67
2021/10/27 01:31:13;;;;;;;17.20;8.88;;;9.30;66.50;;;;;;6276759;22;20066;-67
2021/10/27 01:33:41;;;;;;;17.70;10.32;;;9.30;66.50;;;;;;6276487;22;20078;-67
2021/10/27 01:36:07;;;;;;;17.20;9.20;;;9.30;66.70;;;;;;6276711;22;20003;-67
2021/10/27 01:38:33;;;;;;;12.38;8.70;;;9.20;66.60;;;;;;6276490;22;20000;-67
2021/10/27 01:41:00;;;;;;;14.73;7.90;;;9.20;66.50;;;;;;6276633;22;20006;-66
2021/10/27 01:43:26;;;;;;;15.75;9.30;;;9.20;66.50;;;;;;6276626;22;20078;-66
2021/10/27 01:45:51;;;;;;;15.70;9.52;;;9.20;66.60;;;;;;6276579;22;19999;-67
2021/10/27 01:48:17;;;;;;;11.98;7.85;;;9.20;66.70;;;;;;6276602;22;20014;-67
2021/10/27 01:50:44;;;;;;;12.77;8.32;;;9.20;66.80;;;;;;6276539;22;19999;-67
2021/10/27 01:53:12;;;;;;;13.73;8.00;;;9.20;66.80;;;;;;6276395;22;20085;-66
2021/10/27 01:55:39;;;;;;;13.57;9.30;;;9.10;66.60;;;;;;6276326;22;20000;-67
2021/10/27 01:58:05;;;;;;;10.60;7.45;;;9.20;66.80;;;;;;6276478;22;20002;-65
2021/10/27 02:00:31;;;;;;;13.07;8.30;;;9.20;66.80;;;;;;6276386;22;19999;-67
2021/10/27 02:02:57;;;;;;;14.10;7.85;;;9.20;66.80;;;;;;6276239;22;19999;-67
2021/10/27 02:05:22;;;;;;;11.18;7.57;;;9.10;66.80;;;;;;6276162;22;20008;-67
2021/10/27 02:07:48;;;;;;;10.68;7.43;;;9.10;66.70;;;;;;6276165;22;20004;-67
2021/10/27 02:10:14;;;;;;;13.00;7.55;;;9.10;66.70;;;;;;6274569;22;20078;-67
2021/10/27 02:12:41;;;;;;;13.90;7.03;;;9.10;66.70;;;;;;6275854;22;20485;-67
2021/10/27 02:15:10;;;;;;;13.93;7.93;;;9.10;66.60;;;;;;6276217;22;20003;-67
2021/10/27 02:17:37;;;;;;;11.75;7.93;;;9.10;66.60;;;;;;6274485;22;20364;-67
2021/10/27 02:20:06;;;;;;;11.02;7.15;;;9.10;66.70;;;;;;6276049;22;20072;-67
2021/10/27 02:22:32;;;;;;;14.48;8.68;;;9.10;66.70;;;;;;6276040;22;19996;-67
2021/10/27 02:24:58;;;;;;;21.05;10.50;;;9.00;66.60;;;;;;6275823;22;20007;-67
2021/10/27 02:27:24;;;;;;;16.08;9.18;;;9.10;66.80;;;;;;6275994;22;20333;-67
2021/10/27 02:29:50;;;;;;;17.65;9.15;;;9.00;66.70;;;;;;6274376;22;20446;-67
2021/10/27 02:32:16;;;;;;;16.40;8.88;;;9.00;66.70;;;;;;6275940;22;20424;-67
2021/10/27 02:34:41;;;;;;;12.20;8.27;;;9.00;66.80;;;;;;6274401;22;20034;-67
2021/10/27 02:37:07;;;;;;;16.00;8.25;;;9.00;66.80;;;;;;6275994;22;20076;-67
2021/10/27 02:39:33;;;;;;;17.25;9.88;;;9.00;66.80;;;;;;6276054;22;20004;-67
2021/10/27 02:41:59;;;;;;;19.45;10.27;;;9.00;66.90;;;;;;6274361;22;20028;-67
2021/10/27 02:44:26;;;;;;;35.58;11.02;;;9.00;67.00;;;;;;6276095;22;20053;-67
2021/10/27 02:46:51;;;;;;;21.95;10.38;;;9.00;67.20;;;;;;6276015;22;20074;-67
2021/10/27 02:49:17;;;;;;;26.67;9.52;;;9.00;67.30;;;;;;6275908;22;20023;-67
2021/10/27 02:51:43;;;;;;;15.68;8.20;;;9.00;67.30;;;;;;6276012;22;20507;-67
2021/10/27 02:54:09;;;;;;;18.02;7.53;;;9.00;67.20;;;;;;6275890;22;20069;-67
2021/10/27 02:56:35;;;;;;;26.10;11.90;;;9.00;67.10;;;;;;6275914;22;20407;-67
2021/10/27 02:59:01;;;;;;;17.58;10.32;;;9.00;67.30;;;;;;6275943;22;19999;-67
2021/10/27 03:01:27;;;;;;;19.63;10.80;;;9.00;67.30;;;;;;6275986;22;20022;-66
2021/10/27 03:03:54;;;;;;;18.33;9.88;;;9.00;67.50;;;;;;6275963;22;20419;-67
2021/10/27 03:06:20;;;;;;;24.20;10.02;;;9.00;67.50;;;;;;6275830;22;20031;-67
2021/10/27 03:08:46;;;;;;;15.38;9.65;;;9.00;67.50;;;;;;6276069;22;20007;-67
2021/10/27 03:11:14;;;;;;;19.25;9.05;;;9.00;67.60;;;;;;6275882;22;20007;-67
2021/10/27 03:13:40;;;;;;;30.23;10.23;;;9.00;67.60;;;;;;6275660;22;20431;-67
2021/10/27 03:16:06;;;;;;;21.90;12.55;;;9.00;67.50;;;;;;6275924;22;20000;-68
2021/10/27 03:18:32;;;;;;;33.28;14.40;;;9.00;67.50;;;;;;6275828;22;20075;-67
2021/10/27 03:20:58;;;;;;;35.08;12.52;;;9.00;67.60;;;;;;6275767;22;20000;-67
2021/10/27 03:23:24;;;;;;;20.48;11.02;;;9.00;67.60;;;;;;6275867;22;20122;-67
2021/10/27 03:25:50;;;;;;;24.83;11.73;;;9.00;67.50;;;;;;6275835;22;20006;-67
2021/10/27 03:28:16;;;;;;;36.05;13.93;;;8.90;67.40;;;;;;6275689;22;20010;-67
2021/10/27 03:30:42;;;;;;;40.83;12.65;;;9.00;67.40;;;;;;6275815;22;20003;-68
2021/10/27 03:33:08;;;;;;;27.42;13.45;;;8.90;67.30;;;;;;6275740;22;20471;-67
2021/10/27 03:35:34;;;;;;;22.63;10.90;;;9.00;67.40;;;;;;6275831;22;20061;-67
2021/10/27 03:37:59;;;;;;;29.35;9.82;;;8.90;67.30;;;;;;6277228;22;19996;-67
2021/10/27 03:40:25;;;;;;;31.48;12.00;;;8.90;67.30;;;;;;6277362;22;20007;-67
2021/10/27 03:42:51;;;;;;;28.02;11.52;;;8.90;67.30;;;;;;6276021;22;20031;-67
2021/10/27 03:45:17;;;;;;;17.67;10.13;;;8.90;67.40;;;;;;6277613;22;20070;-67
2021/10/27 03:47:43;;;;;;;28.48;12.80;;;8.90;67.40;;;;;;6275987;22;20008;-67
2021/10/27 03:50:13;;;;;;;23.30;11.18;;;8.90;67.30;;;;;;6277577;22;19996;-67
2021/10/27 03:52:40;;;;;;;23.88;10.60;;;8.90;67.40;;;;;;6277404;22;20030;-67
2021/10/27 03:55:06;;;;;;;16.70;9.25;;;8.90;67.30;;;;;;6277498;22;20006;-67
2021/10/27 03:57:32;;;;;;;18.08;10.45;;;8.90;67.40;;;;;;6277386;22;20004;-67
2021/10/27 03:59:59;;;;;;;20.38;11.88;;;8.90;67.50;;;;;;6277392;22;19999;-67
2021/10/27 04:02:25;;;;;;;17.60;10.35;;;8.80;67.50;;;;;;6277353;22;20334;-67
2021/10/27 04:04:51;;;;;;;17.65;10.32;;;8.80;67.60;;;;;;6277377;22;20065;-67
2021/10/27 04:07:17;;;;;;;24.15;12.05;;;8.80;67.60;;;;;;6275613;22;20381;-67
2021/10/27 04:09:42;;;;;;;27.88;12.52;;;8.80;67.80;;;;;;6277409;22;20053;-67
2021/10/27 04:12:09;;;;;;;20.77;11.13;;;8.80;68.00;;;;;;6277206;22;20053;-67
2021/10/27 04:14:35;;;;;;;19.35;11.50;;;8.80;68.10;;;;;;6277029;22;20043;-67
2021/10/27 04:17:01;;;;;;;18.42;12.52;;;8.80;68.10;;;;;;6277382;22;20359;-67
2021/10/27 04:19:26;;;;;;;17.95;10.52;;;8.80;68.10;;;;;;6277044;22;20003;-67
2021/10/27 04:21:53;;;;;;;15.80;9.45;;;8.80;68.10;;;;;;6277208;22;20087;-67
2021/10/27 04:24:20;;;;;;;21.83;10.85;;;8.80;67.90;;;;;;6275506;22;20011;-67
2021/10/27 04:26:45;;;;;;;17.05;10.35;;;8.70;67.90;;;;;;6277011;22;19996;-67
2021/10/27 04:29:11;;;;;;;20.02;10.60;;;8.70;67.90;;;;;;6277005;22;20048;-67
2021/10/27 04:31:37;;;;;;;20.98;11.40;;;8.70;67.90;;;;;;6277074;22;20026;-67
2021/10/27 04:34:03;;;;;;;17.48;10.27;;;8.70;68.00;;;;;;6276947;22;20011;-68
2021/10/27 04:36:29;;;;;;;19.27;12.32;;;8.70;67.90;;;;;;6276955;22;20334;-68
2021/10/27 04:38:55;;;;;;;15.52;9.93;;;8.70;68.10;;;;;;6276961;22;20000;-67
2021/10/27 04:41:21;;;;;;;15.77;9.65;;;8.70;68.20;;;;;;6277036;22;19999;-68
2021/10/27 04:43:47;;;;;;;15.05;9.70;;;8.60;68.10;;;;;;6276983;22;20003;-67
2021/10/27 04:46:13;;;;;;;18.50;10.30;;;8.60;68.00;;;;;;6276771;22;20000;-67
2021/10/27 04:48:39;;;;;;;18.17;11.27;;;8.60;68.00;;;;;;6276521;22;20035;-67
2021/10/27 04:51:05;;;;;;;18.85;11.30;;;8.60;67.90;;;;;;6276824;22;20007;-68
2021/10/27 04:53:31;;;;;;;22.75;13.40;;;8.60;67.90;;;;;;6276791;22;20011;-67
2021/10/27 04:55:57;;;;;;;24.42;12.35;;;8.60;67.80;;;;;;6276847;22;20469;-67
2021/10/27 04:58:22;;;;;;;37.63;14.75;;;8.60;67.80;;;;;;6276893;22;20004;-67
2021/10/27 05:00:49;;;;;;;37.97;19.23;;;8.60;67.90;;;;;;6276980;22;20342;-68
2021/10/27 05:03:14;;;;;;;47.00;21.17;;;8.50;67.80;;;;;;6277188;22;20079;-68
2021/10/27 05:05:48;;;;;;;52.35;23.00;;;8.50;68.00;;;;;;6276772;22;20027;-67
2021/10/27 05:08:16;;;;;;;32.38;17.50;;;8.50;68.20;;;;;;6276798;22;20007;-67
2021/10/27 05:10:42;;;;;;;27.15;14.77;;;8.50;68.30;;;;;;6276722;22;20034;-67
2021/10/27 05:13:07;;;;;;;45.08;19.48;;;8.50;68.20;;;;;;6276316;22;20027;-67
2021/10/27 05:15:33;;;;;;;47.97;20.45;;;8.50;68.20;;;;;;6276535;22;20008;-67
2021/10/27 05:17:59;;;;;;;39.90;18.80;;;8.50;68.20;;;;;;6276556;22;20070;-67
2021/10/27 05:20:25;;;;;;;39.22;17.55;;;8.50;68.20;;;;;;6276422;22;20435;-67
2021/10/27 05:22:50;;;;;;;32.78;17.23;;;8.40;68.90;;;;;;6276594;22;20000;-67
2021/10/27 05:25:16;;;;;;;35.33;16.10;;;8.50;68.20;;;;;;6276527;22;20369;-67
2021/10/27 05:27:42;;;;;;;29.23;15.50;;;8.40;68.10;;;;;;6276540;22;20010;-66
2021/10/27 05:30:08;;;;;;;19.35;12.18;;;8.50;68.20;;;;;;6276478;22;20000;-67
2021/10/27 05:32:34;;;;;;;27.98;14.43;;;8.50;68.20;;;;;;6276584;22;20380;-67
2021/10/27 05:35:00;;;;;;;23.00;11.95;;;8.40;68.10;;;;;;6276436;22;20023;-67
2021/10/27 05:37:26;;;;;;;22.45;11.48;;;8.40;68.00;;;;;;6276442;22;20000;-67
2021/10/27 05:39:52;;;;;;;20.27;11.77;;;8.40;68.10;;;;;;6276433;22;19996;-68
2021/10/27 05:42:21;;;;;;;33.58;13.38;;;8.40;68.10;;;;;;6276219;22;20428;-67
2021/10/27 05:44:49;;;;;;;21.20;12.57;;;8.40;68.30;;;;;;6276317;22;19995;-67
2021/10/27 05:47:16;;;;;;;16.33;10.95;;;8.40;68.30;;;;;;6276117;22;20004;-67
2021/10/27 05:49:51;;;;;;;16.70;11.13;;;8.50;68.50;;;;;;6276376;22;20000;-67
2021/10/27 05:57:44;;;;;;;17.08;11.77;;;8.50;68.80;;;;;;6276341;22;20078;-67
2021/10/27 06:00:13;;;;;;;26.05;12.98;;;8.50;68.80;;;;;;6275868;22;20041;-67
2021/10/27 06:02:39;;;;;;;18.50;12.07;;;8.60;68.90;;;;;;6274673;22;20036;-68
2021/10/27 06:05:05;;;;;;;39.10;13.85;;;8.60;69.00;;;;;;6276131;22;20061;-67
2021/10/27 06:07:32;;;;;;;23.30;13.77;;;8.60;69.20;;;;;;6276141;22;20003;-67
2021/10/27 06:09:58;;;;;;;29.38;12.15;;;8.60;69.30;;;;;;6274644;22;20038;-67
2021/10/27 06:12:24;;;;;;;24.33;13.32;;;8.70;69.40;;;;;;6275888;22;20046;-67
2021/10/27 06:14:50;;;;;;;21.10;12.27;;;8.70;69.50;;;;;;6276114;22;20004;-67
2021/10/27 06:17:16;;;;;;;17.80;11.63;;;8.70;69.50;;;;;;6276066;22;20006;-67
2021/10/27 06:19:42;;;;;;;16.40;9.73;;;8.80;69.50;;;;;;6276081;22;20079;-67
2021/10/27 06:22:09;;;;;;;22.13;11.75;;;8.80;69.40;;;;;;6276082;22;20045;-67
2021/10/27 06:24:36;;;;;;;19.15;10.77;;;8.80;69.30;;;;;;6275991;22;20000;-67
2021/10/27 06:27:04;;;;;;;14.38;9.40;;;8.90;69.20;;;;;;6275847;22;20004;-67
2021/10/27 06:29:39;;;;;;;21.60;11.90;;;8.90;69.20;;;;;;6275688;22;20071;-67
2021/10/27 06:32:23;;;;;;;24.23;12.73;;;9.00;69.20;;;;;;6275622;22;20493;-66
2021/10/27 06:34:56;;;;;;;19.08;11.95;;;9.00;69.30;;;;;;6276081;22;20004;-66
2021/10/27 06:48:09;;;;;;;26.55;12.40;;;9.30;69.00;;;;;;6275860;22;20014;-66
2021/10/27 06:50:35;;;;;;;20.63;12.45;;;9.30;68.80;;;;;;6275869;22;20331;-66
2021/10/27 06:53:01;;;;;;;18.30;10.35;;;9.40;68.80;;;;;;6275632;22;20034;-66
2021/10/27 06:55:27;;;;;;;22.40;10.73;;;9.40;68.80;;;;;;6275588;22;19996;-66
2021/10/27 06:57:53;;;;;;;30.35;12.48;;;9.50;68.90;;;;;;6275756;22;20003;-66
2021/10/27 07:00:23;;;;;;;25.80;14.20;;;9.60;69.00;;;;;;6274022;22;20000;-66
2021/10/27 07:14:58;;;;;;;29.17;12.75;;;9.80;68.60;;;;;;6276191;22;20004;-67
2021/10/27 07:16:13;;;;;;;27.13;14.40;;;10.10;68.50;;;;;;6277892;22;20046;-66
2021/10/27 07:18:39;;;;;;;27.30;13.65;;;10.20;68.30;;;;;;6278281;22;20320;-66
2021/10/27 07:21:05;;;;;;;22.00;12.88;;;10.30;68.30;;;;;;6278723;22;20046;-67
2021/10/27 07:23:33;;;;;;;22.10;12.60;;;10.40;68.20;;;;;;6278439;22;20075;-67
2021/10/27 07:25:59;;;;;;;27.10;13.38;;;10.40;67.90;;;;;;6278257;22;19999;-67
2021/10/27 07:28:26;;;;;;;26.10;12.65;;;10.60;67.80;;;;;;6278352;22;20007;-67
2021/10/27 07:30:53;;;;;;;22.48;13.10;;;10.60;67.50;;;;;;6277829;22;20368;-67
2021/10/27 07:33:20;;;;;;;24.15;12.95;;;10.70;67.20;;;;;;6277418;22;20086;-67
2021/10/27 07:35:51;;;;;;;19.30;12.07;;;10.80;67.10;;;;;;6277426;22;20057;-68
2021/10/27 07:41:01;;;;;;;26.42;13.65;;;11.00;66.90;;;;;;6277512;22;20039;-67
2021/10/27 07:43:29;;;;;;;16.85;10.77;;;11.10;66.50;;;;;;6277583;22;19999;-67
2021/10/27 07:45:56;;;;;;;19.70;10.73;;;11.30;66.20;;;;;;6275798;22;20010;-66
2021/10/27 07:48:22;;;;;;;19.17;11.65;;;11.40;65.60;;;;;;6277475;22;20032;-67
2021/10/27 07:50:49;;;;;;;17.70;10.43;;;11.40;65.00;;;;;;6277237;22;20049;-67
2021/10/27 07:53:15;;;;;;;15.45;10.02;;;11.50;64.60;;;;;;6277533;22;20007;-67
2021/10/27 07:55:46;;;;;;;16.00;10.65;;;11.50;64.30;;;;;;6275480;22;20014;-67
2021/10/27 07:58:15;;;;;;;16.33;11.57;;;11.50;64.10;;;;;;6277226;22;19995;-67
2021/10/27 08:00:42;;;;;;;16.05;10.25;;;11.50;64.10;;;;;;6277157;22;19996;-67
2021/10/27 08:03:09;;;;;;;22.33;10.60;;;11.50;64.10;;;;;;6277203;22;20008;-67
2021/10/27 08:05:39;;;;;;;18.02;10.85;;;11.50;64.20;;;;;;6277208;22;20003;-67
2021/10/27 08:08:07;;;;;;;20.40;12.07;;;11.50;64.00;;;;;;6277251;22;20003;-67
2021/10/27 08:10:33;;;;;;;17.88;10.30;;;11.50;63.80;;;;;;6277067;22;20015;-67
2021/10/27 08:13:00;;;;;;;15.45;10.98;;;11.50;63.90;;;;;;6276769;22;20114;-66
2021/10/27 08:15:27;;;;;;;16.80;10.38;;;11.50;63.90;;;;;;6277116;22;20000;-66
2021/10/27 08:17:53;;;;;;;16.92;10.85;;;11.40;63.90;;;;;;6277106;22;20008;-67
2021/10/27 08:20:21;;;;;;;18.05;11.43;;;11.40;64.00;;;;;;6275407;22;20000;-67
2021/10/27 08:22:53;;;;;;;18.20;12.00;;;11.50;64.30;;;;;;6276837;22;20007;-66
2021/10/27 08:25:25;;;;;;;17.08;11.30;;;11.50;64.20;;;;;;6277285;22;19995;-66
2021/10/27 08:27:51;;;;;;;14.68;10.85;;;11.50;64.40;;;;;;6277068;22;19996;-66
2021/10/27 08:30:19;;;;;;;19.48;11.23;;;11.50;64.50;;;;;;6276985;22;20063;-66
2021/10/27 08:32:54;;;;;;;14.98;10.73;;;11.50;64.50;;;;;;6277040;22;20007;-67
2021/10/27 08:35:20;;;;;;;20.20;12.25;;;11.60;64.50;;;;;;6277107;22;20004;-67
2021/10/27 08:37:48;;;;;;;16.58;10.43;;;11.60;64.50;;;;;;6276903;22;19996;-66
2021/10/27 08:40:16;;;;;;;22.95;11.82;;;11.70;64.60;;;;;;6275366;22;20028;-66
2021/10/27 08:42:44;;;;;;;20.40;13.52;;;11.70;64.60;;;;;;6276889;22;20141;-67
2021/10/27 08:45:11;;;;;;;22.25;12.43;;;11.80;64.30;;;;;;6276900;22;20000;-68
2021/10/27 08:47:40;;;;;;;18.23;12.48;;;11.80;64.40;;;;;;6275224;22;20004;-67
2021/10/27 08:50:10;;;;;;;18.38;11.75;;;11.90;64.30;;;;;;6275038;22;20501;-67
2021/10/27 08:52:37;;;;;;;20.77;12.65;;;11.90;64.20;;;;;;6276815;22;20010;-67
2021/10/27 08:55:07;;;;;;;19.08;12.38;;;12.00;64.00;;;;;;6276491;22;20007;-68
2021/10/27 08:57:32;;;;;;;20.52;13.10;;;12.00;63.70;;;;;;6276528;22;20003;-66
2021/10/27 09:39:38;;;;;;;15.48;11.52;;;13.00;62.70;;;;;;6242452;23;20038;-72
2021/10/27 10:05:12;;;;;;;26.83;16.50;;;13.70;61.90;;;;;;6275112;22;20065;-67
2021/10/27 10:07:38;;;;;;;39.00;21.40;;;13.70;61.80;;;;;;6275088;22;20046;-64
2021/10/27 10:10:06;;;;;;;31.63;18.52;;;13.80;61.50;;;;;;6274787;22;20006;-73
2021/10/27 10:12:48;;;;;;;36.45;19.88;;;13.80;61.50;;;;;;6274008;22;20011;-66
2021/10/27 10:15:14;;;;;;;30.90;17.58;;;13.90;61.10;;;;;;6272952;22;20011;-75
2021/10/27 10:17:41;;;;;;;33.55;19.58;;;13.90;60.90;;;;;;6275025;22;20000;-73
2021/10/27 10:20:12;;;;;;;33.10;18.58;;;14.00;61.10;;;;;;6274905;22;20003;-69
2021/10/27 10:22:43;;;;;;;27.67;16.60;;;14.00;61.00;;;;;;6275053;22;20035;-68
2021/10/27 10:25:17;;;;;;;27.67;17.55;;;14.10;61.10;;;;;;6274499;22;20081;-67
2021/10/27 10:27:46;;;;;;;31.55;17.95;;;14.10;60.70;;;;;;6275015;22;20073;-66
2021/10/27 10:30:34;;;;;;;25.88;16.67;;;14.20;60.60;;;;;;6274654;22;20012;-65
2021/10/27 10:33:03;;;;;;;27.38;17.08;;;14.20;60.40;;;;;;6274243;22;20438;-66
2021/10/27 10:35:40;;;;;;;32.90;18.33;;;14.30;60.50;;;;;;6275809;22;20000;-66
2021/10/27 11:38:17;;;;;;;31.85;16.60;;;15.60;58.70;;;;;;6247457;22;20072;-66
2021/10/27 11:43:07;;;;;;;29.15;17.30;;;15.80;58.60;;;;;;6277721;22;20078;-68
2021/10/27 11:45:39;;;;;;;27.67;17.38;;;15.90;58.60;;;;;;6277388;22;20078;-67
2021/10/27 11:48:32;;;;;;;30.92;17.83;;;15.90;58.30;;;;;;6277254;22;20053;-67
2021/10/27 11:50:52;;;;;;;34.80;17.48;;;16.00;58.20;;;;;;6276993;22;20054;-68
2021/10/27 11:53:33;;;;;;;30.95;17.90;;;16.10;58.30;;;;;;6277360;22;20003;-67
2021/10/27 11:56:32;;;;;;;24.52;16.45;;;16.10;58.30;;;;;;6277261;22;20000;-67
2021/10/27 11:59:00;;;;;;;26.48;16.83;;;16.20;58.20;;;;;;6182986;23;20011;-67
2021/10/27 12:01:36;;;;;;;37.70;16.83;;;16.30;58.00;;;;;;6158151;23;20437;-67
2021/10/27 12:04:08;;;;;;;27.65;17.60;;;16.30;58.00;;;;;;6183691;23;20140;-67
2021/10/27 12:06:41;;;;;;;24.42;15.88;;;16.40;58.10;;;;;;6183734;23;20009;-67
2021/10/27 12:20:03;;;;;;;25.50;15.90;;;16.40;57.70;;;;;;6183351;23;20473;-68
2021/10/27 12:22:32;;;;;;;39.35;18.67;;;16.50;57.90;;;;;;6183419;23;20005;-67
2021/10/27 12:25:01;;;;;;;27.40;16.60;;;16.50;57.80;;;;;;6183565;23;20037;-67
2021/10/27 12:27:31;;;;;;;28.30;16.40;;;16.50;58.00;;;;;;6183272;23;20009;-67
2021/10/27 12:30:04;;;;;;;27.02;16.02;;;16.50;58.00;;;;;;6183635;23;20008;-68
2021/10/27 12:32:30;;;;;;;26.77;15.85;;;16.60;58.00;;;;;;6182853;23;20310;-68
2021/10/27 12:35:05;;;;;;;23.08;15.77;;;16.60;58.10;;;;;;6234738;22;20008;-67
2021/10/27 12:37:39;;;;;;;25.75;16.48;;;16.70;58.10;;;;;;6275400;22;19999;-68
2021/10/27 12:40:28;;;;;;;;;;;16.70;57.90;;;;;;6277491;22;20502;-68
2021/10/27 12:43:06;;;;;;;23.33;14.93;;;16.70;58.30;;;;;;6276937;22;19930;-67
2021/10/27 12:45:35;;;;;;;23.08;15.70;;;16.80;57.80;;;;;;6276866;22;20428;-65
2021/10/27 12:48:09;;;;;;;24.27;14.88;;;16.80;57.80;;;;;;6276679;22;20000;-67
2021/10/27 12:50:51;;;;;;;25.65;15.57;;;16.90;57.70;;;;;;6277229;22;20382;-67
2021/10/27 12:53:32;;;;;;;27.88;16.35;;;16.90;57.70;;;;;;6274669;22;20004;-66
2021/10/27 12:56:16;;;;;;;23.50;15.02;;;17.00;57.50;;;;;;6276766;22;20003;-66
2021/10/27 12:58:46;;;;;;;;;;;17.00;57.60;;;;;;6276852;22;20538;-66
2021/10/27 13:14:43;;;;;;;;;;;17.40;57.70;;;;;;6279152;22;19918;-66
2021/10/27 13:30:31;;;;;;;;;;;17.50;57.50;;;;;;6277015;22;19952;-66
2021/10/27 13:32:59;;;;;;;;;;;17.50;57.50;;;;;;6277037;22;20262;-67
2021/10/27 13:35:25;;;;;;;;;;;17.50;57.50;;;;;;6277181;22;19927;-66
2021/10/27 13:37:51;;;;;;;;;;;17.50;57.50;;;;;;6277109;22;19899;-65
2021/10/27 13:40:17;;;;;;;;;;;17.60;57.50;;;;;;6276645;22;19907;-65
2021/10/27 14:06:40;;;;;;;;;;;17.80;56.90;;;;;;6276808;22;19987;-66
2021/10/27 14:09:19;;;;;;;;;;;17.80;56.70;;;;;;6276779;22;19899;-66
2021/10/27 14:47:22;;;;;;;;;;;17.80;56.20;;;;;;6213315;23;19966;-65
2021/10/27 15:19:57;;;;;;;;;;;16.90;56.40;;;;;;6276092;22;19905;-66
2021/10/27 15:25:20;;;;;;;;;;;16.80;56.60;;;;;;6285334;22;20253;-66
2021/10/27 15:33:07;;;;;;;;;;;16.50;56.70;;;;;;6276009;22;20317;-67
2021/10/27 15:35:43;;;;;;;;;;;16.50;56.80;;;;;;6277864;22;19914;-66
2021/10/27 15:51:59;;;;;;;;;;;15.90;57.10;;;;;;6214213;23;19923;-66
2021/10/27 15:54:24;;;;;;;;;;;15.80;57.20;;;;;;6214302;23;19904;-66
2021/10/27 15:56:50;;;;;;;;;;;15.70;57.20;;;;;;6243729;22;19906;-67
2021/10/27 15:59:17;;;;;;;;;;;15.60;57.30;;;;;;6277756;22;19960;-67
2021/10/27 16:01:44;;;;;;;;;;;15.50;57.30;;;;;;6277405;22;19903;-66
2021/10/27 16:04:10;;;;;;;;;;;15.40;57.40;;;;;;6277345;22;19930;-67
2021/10/27 16:06:50;;;;;;;;;;;15.40;57.60;;;;;;6277422;22;20234;-67
2021/10/27 16:09:17;;;;;;;;;;;15.30;57.60;;;;;;6277509;22;20234;-67
2021/10/27 16:11:43;;;;;;;;;;;15.20;57.70;;;;;;6277746;22;19982;-67
2021/10/27 16:14:09;;;;;;;;;;;15.10;57.80;;;;;;6275778;22;19988;-67
2021/10/27 16:16:34;;;;;;;;;;;15.00;57.90;;;;;;6277536;22;19973;-67
2021/10/27 16:19:02;;;;;;;;;;;15.00;58.00;;;;;;6276746;22;19931;-67
2021/10/27 16:21:28;;;;;;;;;;;14.90;58.00;;;;;;6277540;22;19922;-67
2021/10/27 16:23:55;;;;;;;;;;;14.80;58.10;;;;;;6277645;22;20220;-68
2021/10/27 16:26:21;;;;;;;;;;;14.70;58.20;;;;;;6277200;22;19981;-68
2021/10/27 16:28:47;;;;;;;;;;;14.60;58.20;;;;;;6277569;22;19903;-67
2021/10/27 16:31:13;;;;;;;;;;;14.60;58.30;;;;;;6277733;22;19903;-68
2021/10/27 16:33:41;;;;;;;;;;;14.50;58.40;;;;;;6277132;22;20282;-67
2021/10/27 16:36:11;;;;;;;;;;;14.40;58.60;;;;;;6277167;22;19899;-68
2021/10/27 16:38:37;;;;;;;;;;;14.40;58.70;;;;;;6276996;22;19970;-67
2021/10/27 16:41:02;;;;;;;;;;;14.30;58.70;;;;;;6277395;22;19942;-68
2021/10/27 16:43:28;;;;;;;;;;;14.20;58.80;;;;;;6277346;22;19907;-68
2021/10/27 16:45:54;;;;;;;;;;;14.20;58.90;;;;;;6275390;22;19899;-68
2021/10/27 16:48:20;;;;;;;;;;;14.10;59.00;;;;;;6277446;22;19906;-67
2021/10/27 16:50:46;;;;;;;;;;;14.00;59.00;;;;;;6277245;22;19899;-68
2021/10/27 16:53:12;;;;;;;;;;;14.00;59.00;;;;;;6277176;22;19974;-68
2021/10/27 16:55:37;;;;;;;;;;;13.90;59.10;;;;;;6277324;22;19906;-68
2021/10/27 16:58:04;;;;;;;;;;;13.90;59.20;;;;;;6277580;22;20311;-68
2021/10/27 17:00:30;;;;;;;;;;;13.80;59.40;;;;;;6277489;22;19906;-68
2021/10/27 17:02:56;;;;;;;;;;;13.80;59.50;;;;;;6277042;22;20246;-68
2021/10/27 17:05:22;;;;;;;;;;;13.70;59.60;;;;;;6276744;22;19907;-67
2021/10/27 17:07:48;;;;;;;;;;;13.70;59.60;;;;;;6277278;22;19899;-68
2021/10/27 17:10:15;;;;;;;;;;;13.60;59.60;;;;;;6277390;22;19977;-68
2021/10/27 17:12:42;;;;;;;;;;;13.60;59.70;;;;;;6277006;22;19949;-68
2021/10/27 17:15:08;;;;;;;;;;;13.50;59.70;;;;;;6277135;22;19910;-68
2021/10/27 17:17:34;;;;;;;;;;;13.50;59.80;;;;;;6277248;22;20235;-68
2021/10/27 17:20:00;;;;;;;;;;;13.50;59.80;;;;;;6275607;22;19903;-68
2021/10/27 17:22:28;;;;;;;;;;;13.40;59.90;;;;;;6277312;22;19929;-68
2021/10/27 17:24:54;;;;;;;;;;;13.30;59.90;;;;;;6277198;22;19899;-68
2021/10/27 17:27:21;;;;;;;;;;;13.30;59.90;;;;;;6277161;22;19906;-68
2021/10/27 17:29:47;;;;;;;;;;;13.30;60.00;;;;;;6277254;22;19930;-65
2021/10/27 17:32:13;;;;;;;;;;;13.20;60.10;;;;;;6277162;22;20009;-68
2021/10/27 17:34:38;;;;;;;;;;;13.20;60.10;;;;;;6277047;22;19938;-68
2021/10/27 17:37:04;;;;;;;;;;;13.10;60.10;;;;;;6277035;22;19899;-68
2021/10/27 17:39:30;;;;;;;;;;;13.10;60.20;;;;;;6277119;22;19899;-68
2021/10/27 17:41:57;;;;;;;;;;;13.00;60.20;;;;;;6277054;22;19899;-68
2021/10/27 17:44:25;;;;;;;;;;;13.00;60.30;;;;;;6277049;22;20211;-67
2021/10/27 17:47:06;;;;;;;;;;;13.00;60.40;;;;;;6277127;22;19899;-68
2021/10/27 17:52:16;;;;;;;;;;;12.90;60.50;;;;;;6282573;22;19907;-68
2021/10/27 18:00:10;;;;;;;;;;;12.80;60.60;;;;;;6276940;22;19907;-68
2021/10/27 18:02:40;;;;;;;;;;;12.70;60.70;;;;;;6275236;22;19899;-67
2021/10/27 18:05:06;;;;;;;;;;;12.70;60.70;;;;;;6277321;22;19899;-68
2021/10/27 18:07:33;;;;;;;;;;;12.60;60.80;;;;;;6276847;22;20265;-68
2021/10/27 18:10:00;;;;;;;;;;;12.60;60.80;;;;;;6276876;22;19978;-68